Carl Cannon — WDC6533 — position and weather

sailwx.info

Track history (hours):
 
Tides and Currents Weather Stations Pressure Air Temp Water Temp Dewpoint Dewpoint Depression Visibility Wind Speed Wind Dir Waves Ship Positions

Carl Cannon

Owner: American Commercial Lines LLC, Jeffersonville, IN. More information available from US FCC via Universal Licensing System and Coast Guard Vessel Documentation Center.

Last reported at 2018-Apr-18 12:12 UTC. Time now 2018-Apr-23 07:18 UTC.
Position N 31°26' W 091°31'.

Length 41 m; draft 3.4 m.

MMSI: 367057590.

Date/timePositionNaut miles runAvg speedWind from/ knotsBaromVisibWave heightAir tempDewpointWater temp
2018-Apr-18 12:12N 31°26' W 091°31'16 9.0
2018-Apr-18 10:23N 31°42' W 091°24'5 9.1
2018-Apr-18 09:52N 31°46' W 091°22'4 9.3
2018-Apr-18 09:29N 31°49' W 091°21'5 7.6
2018-Apr-18 08:49N 31°51' W 091°16'6 8.0
2018-Apr-18 08:04N 31°56' W 091°12'110.6
2018-Apr-18 07:55N 31°58' W 091°11'4 8.8
2018-Apr-18 07:26N 31°59' W 091°07'410.0
2018-Apr-18 07:00N 32°03' W 091°04'4 8.1
2018-Apr-18 06:28N 32°06' W 091°06'3 5.4
2018-Apr-18 06:00N 32°08' W 091°04'4 7.5
2018-Apr-18 05:30N 32°10' W 091°00'510.0
2018-Apr-18 05:00N 32°15' W 090°59'5 9.8
2018-Apr-18 04:30N 32°18' W 090°55'3 5.1
2018-Apr-18 04:00N 32°21' W 090°54'0 0.0
2018-Apr-18 03:30N 32°21' W 090°54'0 0.0
2018-Apr-18 03:00N 32°21' W 090°54'0 0.0
2018-Apr-18 02:30N 32°21' W 090°54'0 0.0
2018-Apr-18 02:00N 32°21' W 090°54'0 0.0
2018-Apr-18 01:30N 32°21' W 090°54'0 0.0
2018-Apr-18 01:00N 32°21' W 090°54'0 0.0
2018-Apr-18 00:30N 32°21' W 090°54'0 0.0
2018-Apr-18 00:00N 32°21' W 090°54'0 0.0
2018-Apr-17 23:30N 32°21' W 090°54'0 0.0
2018-Apr-17 23:00N 32°21' W 090°54'0 0.1
2018-Apr-17 22:30N 32°21' W 090°54'1 1.1
2018-Apr-17 22:00N 32°20' W 090°54'2 3.7
2018-Apr-17 21:30N 32°21' W 090°56'4 7.5
2018-Apr-17 21:00N 32°23' W 090°60'4 7.4
2018-Apr-17 20:30N 32°26' W 091°02'510.2
2018-Apr-17 20:00N 32°29' W 091°07'510.0
2018-Apr-17 19:30N 32°34' W 091°06'11 3.1
2018-Apr-17 16:00N 32°45' W 091°09'0 0.0
2018-Apr-17 15:29N 32°45' W 091°09'0 0.1
2018-Apr-17 14:57N 32°45' W 091°09'0 0.1
2018-Apr-17 14:30N 32°45' W 091°09'1 1.3
2018-Apr-17 14:00N 32°45' W 091°09'12 8.2
2018-Apr-17 12:31N 32°57' W 091°05'310.4
2018-Apr-17 12:13N 32°57' W 091°09'7 8.8
2018-Apr-17 11:23N 33°05' W 091°10'  
Track history (hours):
 
Tides and Currents Weather Stations Pressure Air Temp Water Temp Dewpoint Dewpoint Depression Visibility Wind Speed Wind Dir Waves Ship Positions

Carl Cannon

Owner: American Commercial Lines LLC, Jeffersonville, IN. More information available from US FCC via Universal Licensing System and Coast Guard Vessel Documentation Center.

Last reported at 2018-Apr-18 12:12 UTC. Time now 2018-Apr-23 07:18 UTC.
Position N 31°26' W 091°31'.

Length 41 m; draft 3.4 m.

MMSI: 367057590.

Date/timePositionNaut miles runAvg speedWind from/ knotsBaromVisibWave heightAir tempDewpointWater temp
2018-Apr-18 12:12N 31°26' W 091°31'16 9.0
2018-Apr-18 10:23N 31°42' W 091°24'5 9.1
2018-Apr-18 09:52N 31°46' W 091°22'4 9.3
2018-Apr-18 09:29N 31°49' W 091°21'5 7.6
2018-Apr-18 08:49N 31°51' W 091°16'6 8.0
2018-Apr-18 08:04N 31°56' W 091°12'110.6
2018-Apr-18 07:55N 31°58' W 091°11'4 8.8
2018-Apr-18 07:26N 31°59' W 091°07'410.0
2018-Apr-18 07:00N 32°03' W 091°04'4 8.1
2018-Apr-18 06:28N 32°06' W 091°06'3 5.4
2018-Apr-18 06:00N 32°08' W 091°04'4 7.5
2018-Apr-18 05:30N 32°10' W 091°00'510.0
2018-Apr-18 05:00N 32°15' W 090°59'5 9.8
2018-Apr-18 04:30N 32°18' W 090°55'3 5.1
2018-Apr-18 04:00N 32°21' W 090°54'0 0.0
2018-Apr-18 03:30N 32°21' W 090°54'0 0.0
2018-Apr-18 03:00N 32°21' W 090°54'0 0.0
2018-Apr-18 02:30N 32°21' W 090°54'0 0.0
2018-Apr-18 02:00N 32°21' W 090°54'0 0.0
2018-Apr-18 01:30N 32°21' W 090°54'0 0.0
2018-Apr-18 01:00N 32°21' W 090°54'0 0.0
2018-Apr-18 00:30N 32°21' W 090°54'0 0.0
2018-Apr-18 00:00N 32°21' W 090°54'0 0.0
2018-Apr-17 23:30N 32°21' W 090°54'0 0.0
2018-Apr-17 23:00N 32°21' W 090°54'0 0.1
2018-Apr-17 22:30N 32°21' W 090°54'1 1.1
2018-Apr-17 22:00N 32°20' W 090°54'2 3.7
2018-Apr-17 21:30N 32°21' W 090°56'4 7.5
2018-Apr-17 21:00N 32°23' W 090°60'4 7.4
2018-Apr-17 20:30N 32°26' W 091°02'510.2
2018-Apr-17 20:00N 32°29' W 091°07'510.0
2018-Apr-17 19:30N 32°34' W 091°06'11 3.1
2018-Apr-17 16:00N 32°45' W 091°09'0 0.0
2018-Apr-17 15:29N 32°45' W 091°09'0 0.1
2018-Apr-17 14:57N 32°45' W 091°09'0 0.1
2018-Apr-17 14:30N 32°45' W 091°09'1 1.3
2018-Apr-17 14:00N 32°45' W 091°09'12 8.2
2018-Apr-17 12:31N 32°57' W 091°05'310.4
2018-Apr-17 12:13N 32°57' W 091°09'7 8.8
2018-Apr-17 11:23N 33°05' W 091°10'  

Dump ship's entire track history